Time;durP1;ratioP1;P1;durP2;ratioP2;P2;SDS_P1;SDS_P2;PMS_P1;PMS_P2;Temp;Humidity;BMP_temperature;BMP_pressure;BME280_temperature;BME280_humidity;BME280_pressure;Samples;Min_cycle;Max_cycle;Signal;HPM_P1;HPM_P2
2022/03/29 00:01:13;;;;;;;59.60;31.80;;;6.70;82.00;;;;;;4944730;29;20044;-69
2022/03/29 00:03:44;;;;;;;58.47;32.08;;;6.60;82.10;;;;;;4935135;29;20063;-70
2022/03/29 00:06:12;;;;;;;59.50;31.58;;;6.50;82.20;;;;;;4946953;29;20044;-70
2022/03/29 00:08:39;;;;;;;49.40;30.65;;;6.50;82.30;;;;;;4934632;29;20063;-70
2022/03/29 00:11:07;;;;;;;55.83;31.42;;;6.40;82.30;;;;;;4940114;29;20062;-70
2022/03/29 00:13:35;;;;;;;48.08;32.03;;;6.40;82.50;;;;;;4945114;29;20051;-70
2022/03/29 00:16:20;;;;;;;53.33;30.42;;;6.40;82.80;;;;;;4935498;29;20035;-71
2022/03/29 00:18:51;;;;;;;50.10;30.30;;;6.30;83.10;;;;;;4950432;28;20521;-70
2022/03/29 00:21:19;;;;;;;47.42;30.40;;;6.40;83.30;;;;;;4951201;29;20055;-70
2022/03/29 00:23:47;;;;;;;47.50;30.05;;;6.30;83.20;;;;;;4943570;29;20048;-70
2022/03/29 00:26:15;;;;;;;47.33;30.70;;;6.30;83.10;;;;;;4946285;29;20047;-70
2022/03/29 00:28:43;;;;;;;51.78;30.98;;;6.30;83.10;;;;;;4939296;28;20063;-70
2022/03/29 00:31:19;;;;;;;45.65;31.45;;;6.30;83.10;;;;;;4946996;29;20401;-70
2022/03/29 00:33:48;;;;;;;48.78;31.58;;;6.20;83.20;;;;;;4935266;29;20502;-70
2022/03/29 00:36:16;;;;;;;46.10;29.98;;;6.10;83.20;;;;;;4945992;29;20043;-69
2022/03/29 00:38:46;;;;;;;45.35;30.50;;;6.10;83.30;;;;;;4943922;29;20055;-70
2022/03/29 00:41:14;;;;;;;48.53;29.60;;;6.00;83.40;;;;;;4947969;29;20054;-69
2022/03/29 00:43:41;;;;;;;43.00;29.00;;;6.00;83.40;;;;;;4941170;29;20048;-70
2022/03/29 00:46:09;;;;;;;50.50;30.33;;;6.00;83.40;;;;;;4950448;29;20428;-69
2022/03/29 00:48:38;;;;;;;50.75;31.92;;;5.90;83.40;;;;;;4944709;28;20058;-69
2022/03/29 00:51:06;;;;;;;50.58;31.20;;;5.80;83.40;;;;;;4956310;29;20512;-69
2022/03/29 00:53:33;;;;;;;53.90;32.72;;;5.80;83.50;;;;;;4950319;28;20078;-69
2022/03/29 00:56:02;;;;;;;54.05;33.22;;;5.70;83.70;;;;;;4951268;29;20509;-69
2022/03/29 00:58:30;;;;;;;46.78;30.58;;;5.70;83.80;;;;;;4942606;29;20074;-69
2022/03/29 01:00:58;;;;;;;53.90;33.38;;;5.60;83.90;;;;;;4949923;29;20579;-69
2022/03/29 01:03:26;;;;;;;60.47;33.42;;;5.50;84.00;;;;;;4952776;29;20070;-71
2022/03/29 01:05:53;;;;;;;58.33;34.45;;;5.40;84.10;;;;;;4957289;29;20536;-70
2022/03/29 01:08:24;;;;;;;62.22;35.03;;;5.40;84.30;;;;;;4956569;29;20055;-69
2022/03/29 01:10:52;;;;;;;63.20;34.92;;;5.40;84.40;;;;;;4953829;29;20056;-70
2022/03/29 01:13:20;;;;;;;64.57;35.55;;;5.30;84.40;;;;;;4951116;28;20059;-69
2022/03/29 01:15:49;;;;;;;74.55;37.42;;;5.30;84.50;;;;;;4951802;29;20061;-69
2022/03/29 01:18:20;;;;;;;76.60;36.10;;;5.30;84.70;;;;;;4924748;29;20047;-69
2022/03/29 01:20:50;;;;;;;66.43;36.08;;;5.20;84.70;;;;;;4939771;28;20498;-69
2022/03/29 01:23:19;;;;;;;63.22;35.67;;;5.20;84.80;;;;;;4938507;29;20043;-69
2022/03/29 01:25:49;;;;;;;69.95;36.67;;;5.10;84.90;;;;;;4939007;29;20055;-69
2022/03/29 01:28:20;;;;;;;66.18;37.00;;;5.10;85.00;;;;;;4944782;29;20055;-69
2022/03/29 01:30:53;;;;;;;65.53;34.70;;;5.00;85.10;;;;;;4948152;29;20074;-69
2022/03/29 01:33:21;;;;;;;61.55;35.08;;;5.00;85.20;;;;;;4951059;29;20048;-69
2022/03/29 01:35:49;;;;;;;64.22;33.80;;;4.90;85.20;;;;;;4937599;29;20056;-69
2022/03/29 01:38:17;;;;;;;65.40;35.10;;;4.90;85.30;;;;;;4937394;29;20051;-69
2022/03/29 01:40:44;;;;;;;64.90;33.38;;;4.80;85.40;;;;;;4941993;29;20051;-70
2022/03/29 01:43:12;;;;;;;59.70;34.92;;;4.80;85.40;;;;;;4949875;29;20405;-69
2022/03/29 01:45:40;;;;;;;61.60;35.80;;;4.80;85.50;;;;;;4946776;29;20560;-70
2022/03/29 01:48:08;;;;;;;61.72;35.92;;;4.70;85.60;;;;;;4941457;29;20051;-69
2022/03/29 01:50:35;;;;;;;70.65;34.72;;;4.70;85.60;;;;;;4948016;29;20046;-69
2022/03/29 01:53:03;;;;;;;73.88;39.20;;;4.70;85.60;;;;;;4954488;29;20054;-69
2022/03/29 01:55:31;;;;;;;75.68;38.17;;;4.50;85.70;;;;;;4949527;29;20044;-69
2022/03/29 01:57:58;;;;;;;67.30;37.40;;;4.60;85.90;;;;;;4937217;29;20047;-69
2022/03/29 02:00:33;;;;;;;71.38;36.35;;;4.60;85.90;;;;;;4947115;28;20039;-69
2022/03/29 02:03:05;;;;;;;69.15;38.60;;;4.60;86.00;;;;;;4943383;29;20050;-69
2022/03/29 02:05:33;;;;;;;67.50;37.65;;;4.60;86.00;;;;;;4937127;29;20145;-69
2022/03/29 02:08:01;;;;;;;61.80;36.72;;;4.50;86.10;;;;;;4947853;29;20665;-69
2022/03/29 02:10:30;;;;;;;65.13;33.28;;;4.50;86.20;;;;;;4944523;29;20059;-69
2022/03/29 02:12:58;;;;;;;71.07;36.17;;;4.50;86.20;;;;;;4948127;29;20043;-69
2022/03/29 02:15:26;;;;;;;74.70;37.60;;;4.40;86.30;;;;;;4943077;29;20106;-69
2022/03/29 02:17:54;;;;;;;72.50;36.53;;;4.50;86.40;;;;;;4968838;28;20060;-69
2022/03/29 02:20:23;;;;;;;74.35;39.38;;;4.40;86.30;;;;;;4948036;29;20047;-69
2022/03/29 02:22:50;;;;;;;76.68;40.05;;;4.40;86.40;;;;;;4941056;29;20502;-69
2022/03/29 02:25:18;;;;;;;77.22;39.35;;;4.40;86.50;;;;;;4951389;29;20047;-69
2022/03/29 02:27:46;;;;;;;74.63;38.25;;;4.30;86.50;;;;;;4956711;28;20054;-69
2022/03/29 02:30:16;;;;;;;76.80;40.75;;;4.30;86.70;;;;;;4942052;28;20062;-69
2022/03/29 02:32:44;;;;;;;83.40;41.50;;;4.30;86.80;;;;;;4942140;29;20039;-69
2022/03/29 02:35:12;;;;;;;78.05;38.83;;;4.30;86.80;;;;;;4943525;29;20397;-69
2022/03/29 02:37:41;;;;;;;86.80;40.15;;;4.30;86.70;;;;;;4937059;28;20051;-69
2022/03/29 02:40:10;;;;;;;82.43;40.97;;;4.20;86.80;;;;;;4943099;29;20047;-69
2022/03/29 02:42:49;;;;;;;75.05;38.28;;;4.20;86.90;;;;;;4946259;29;20054;-69
2022/03/29 02:45:19;;;;;;;80.18;38.83;;;4.20;87.00;;;;;;4966596;28;20047;-69
2022/03/29 02:47:49;;;;;;;107.25;40.78;;;4.10;87.00;;;;;;4945289;29;20055;-69
2022/03/29 02:50:17;;;;;;;105.63;40.97;;;4.10;87.10;;;;;;4941792;29;20047;-70
2022/03/29 02:52:56;;;;;;;94.35;40.15;;;4.10;87.20;;;;;;4946391;28;20047;-70
2022/03/29 02:55:26;;;;;;;96.85;39.55;;;4.10;87.30;;;;;;4947704;28;20067;-70
2022/03/29 02:57:54;;;;;;;92.25;37.38;;;4.10;87.30;;;;;;4951729;28;20051;-70
2022/03/29 03:00:22;;;;;;;88.28;37.50;;;4.10;87.20;;;;;;4954843;29;20074;-70
2022/03/29 03:02:51;;;;;;;90.13;36.72;;;4.00;87.30;;;;;;4939957;29;20048;-70
2022/03/29 03:05:24;;;;;;;86.47;39.13;;;4.00;87.30;;;;;;4951477;29;20058;-69
2022/03/29 03:07:52;;;;;;;79.68;36.85;;;3.90;87.40;;;;;;4952430;29;20412;-70
2022/03/29 03:10:20;;;;;;;70.10;35.42;;;3.90;87.40;;;;;;4943604;29;20067;-70
2022/03/29 03:12:50;;;;;;;69.18;34.95;;;3.80;87.50;;;;;;4953071;29;20074;-69
2022/03/29 03:15:23;;;;;;;57.97;33.85;;;3.80;87.60;;;;;;4948006;29;20051;-70
2022/03/29 03:17:53;;;;;;;59.13;33.45;;;3.70;87.60;;;;;;4940483;28;20048;-70
2022/03/29 03:20:22;;;;;;;81.90;38.42;;;3.70;87.70;;;;;;4948663;29;20055;-70
2022/03/29 03:22:53;;;;;;;88.75;40.85;;;3.60;87.70;;;;;;4953542;29;20051;-69
2022/03/29 03:25:21;;;;;;;86.10;39.67;;;3.70;87.80;;;;;;4946192;28;20532;-69
2022/03/29 03:27:49;;;;;;;88.60;40.28;;;3.70;87.80;;;;;;4951973;29;20047;-70
2022/03/29 03:30:17;;;;;;;83.78;39.85;;;3.70;87.80;;;;;;4966631;28;20066;-70
2022/03/29 03:32:45;;;;;;;81.95;40.28;;;3.60;87.80;;;;;;4961258;28;20079;-70
2022/03/29 03:35:18;;;;;;;;;;;3.60;87.70;;;;;;4950862;29;20508;-70
2022/03/29 03:37:45;;;;;;;77.00;39.53;;;3.60;87.80;;;;;;4942406;29;19922;-70
2022/03/29 03:40:13;;;;;;;75.63;37.70;;;3.50;87.80;;;;;;4938992;29;20067;-70
2022/03/29 03:42:41;;;;;;;69.57;36.17;;;3.50;87.80;;;;;;4953445;29;20047;-70
2022/03/29 03:45:09;;;;;;;62.28;34.55;;;3.50;87.90;;;;;;4967075;28;20054;-70
2022/03/29 03:47:38;;;;;;;69.95;35.50;;;3.50;87.80;;;;;;4954016;29;20051;-70
2022/03/29 03:50:07;;;;;;;67.82;35.67;;;3.40;87.90;;;;;;4951030;29;20055;-69
2022/03/29 03:52:35;;;;;;;81.88;39.97;;;3.40;88.00;;;;;;4954040;29;20047;-69
2022/03/29 03:55:04;;;;;;;74.53;37.47;;;3.30;88.10;;;;;;4937776;28;20136;-70
2022/03/29 03:57:32;;;;;;;84.28;38.70;;;3.30;88.20;;;;;;4939515;29;20051;-69
2022/03/29 04:00:01;;;;;;;107.55;42.30;;;3.30;88.20;;;;;;4946175;29;20055;-70
2022/03/29 04:02:39;;;;;;;90.82;40.13;;;3.30;88.30;;;;;;4945932;29;20043;-69
2022/03/29 04:05:08;;;;;;;83.85;39.58;;;3.30;88.30;;;;;;4950528;29;20051;-70
2022/03/29 04:07:35;;;;;;;79.32;36.83;;;3.30;88.30;;;;;;4949439;29;20051;-70
2022/03/29 04:10:03;;;;;;;66.38;35.08;;;3.30;88.20;;;;;;4938412;29;20047;-70
2022/03/29 04:12:31;;;;;;;77.47;35.75;;;3.30;88.20;;;;;;4934910;29;20066;-69
2022/03/29 04:14:59;;;;;;;80.43;36.40;;;3.20;88.30;;;;;;4937350;29;20054;-70
2022/03/29 04:17:27;;;;;;;97.10;38.95;;;3.20;88.40;;;;;;4933465;29;20646;-69
2022/03/29 04:19:55;;;;;;;89.63;38.67;;;3.20;88.60;;;;;;4946999;29;20047;-70
2022/03/29 04:22:22;;;;;;;90.28;40.35;;;3.20;88.60;;;;;;4936488;29;20047;-70
2022/03/29 04:24:54;;;;;;;88.50;41.78;;;3.10;88.70;;;;;;4938725;29;20044;-70
2022/03/29 04:27:21;;;;;;;78.90;38.40;;;3.20;88.80;;;;;;4942842;29;20039;-70
2022/03/29 04:29:49;;;;;;;72.90;37.35;;;3.20;88.70;;;;;;4945703;29;20047;-70
2022/03/29 04:32:16;;;;;;;74.13;36.05;;;3.20;88.60;;;;;;4939095;29;20410;-70
2022/03/29 04:34:46;;;;;;;71.88;35.70;;;3.20;88.50;;;;;;4947490;29;20131;-69
2022/03/29 04:37:14;;;;;;;68.68;34.00;;;3.10;88.70;;;;;;4937284;29;20050;-69
2022/03/29 04:39:42;;;;;;;79.43;37.03;;;3.10;88.70;;;;;;4949747;29;20059;-70
2022/03/29 04:42:09;;;;;;;78.90;35.35;;;3.00;88.80;;;;;;4939513;29;20436;-69
2022/03/29 04:44:38;;;;;;;72.18;37.05;;;3.00;88.90;;;;;;4943643;29;20486;-70
2022/03/29 04:47:05;;;;;;;72.90;34.70;;;3.00;88.90;;;;;;4935501;29;20055;-69
2022/03/29 04:49:34;;;;;;;74.03;34.97;;;3.00;88.80;;;;;;4937960;29;20054;-70
2022/03/29 04:52:02;;;;;;;73.80;36.35;;;2.90;88.80;;;;;;4942232;29;20047;-70
2022/03/29 04:54:29;;;;;;;78.63;33.45;;;2.80;88.90;;;;;;4940266;29;20383;-70
2022/03/29 04:56:57;;;;;;;106.00;40.38;;;2.80;89.10;;;;;;4935310;29;20552;-69
2022/03/29 04:59:24;;;;;;;92.15;40.03;;;2.80;89.20;;;;;;4939920;29;20043;-70
2022/03/29 05:01:52;;;;;;;94.78;40.22;;;2.90;89.20;;;;;;4942151;29;20051;-70
2022/03/29 05:04:20;;;;;;;99.40;41.20;;;2.90;89.20;;;;;;4934655;29;20052;-69
2022/03/29 05:06:47;;;;;;;100.50;40.70;;;3.00;89.10;;;;;;4946215;29;20043;-70
2022/03/29 05:09:15;;;;;;;95.32;39.50;;;3.00;89.10;;;;;;4939080;29;20058;-69
2022/03/29 05:11:43;;;;;;;105.72;39.83;;;2.90;89.00;;;;;;4949072;29;20050;-69
2022/03/29 05:14:10;;;;;;;103.80;37.75;;;2.90;88.90;;;;;;4950751;29;20394;-70
2022/03/29 05:16:38;;;;;;;84.30;35.83;;;2.80;88.80;;;;;;4945505;29;20039;-70
2022/03/29 05:19:06;;;;;;;80.85;36.95;;;2.80;88.90;;;;;;4939816;29;20070;-69
2022/03/29 05:21:33;;;;;;;88.95;36.47;;;2.70;89.10;;;;;;4933711;29;20051;-70
2022/03/29 05:24:01;;;;;;;75.65;36.60;;;2.70;89.20;;;;;;4930966;29;20043;-69
2022/03/29 05:26:29;;;;;;;69.30;33.65;;;2.70;89.30;;;;;;4948420;29;20047;-69
2022/03/29 05:28:57;;;;;;;80.93;37.00;;;2.70;89.20;;;;;;4947031;29;20512;-69
2022/03/29 05:31:25;;;;;;;88.80;38.83;;;2.60;89.10;;;;;;4948244;28;20054;-69
2022/03/29 05:33:52;;;;;;;74.70;32.97;;;2.60;89.30;;;;;;4947809;28;20051;-70
2022/03/29 05:36:20;;;;;;;82.18;35.10;;;2.50;89.30;;;;;;4943404;29;20047;-70
2022/03/29 05:38:50;;;;;;;100.13;39.95;;;2.50;89.20;;;;;;4946406;28;20052;-70
2022/03/29 05:41:21;;;;;;;80.72;37.08;;;2.40;89.40;;;;;;4938848;29;20413;-69
2022/03/29 05:43:50;;;;;;;94.18;39.67;;;2.50;89.60;;;;;;4950172;29;20062;-70
2022/03/29 05:49:04;;;;;;;102.40;42.78;;;2.40;89.50;;;;;;4938358;29;20047;-69
2022/03/29 05:51:32;;;;;;;97.82;39.83;;;2.50;89.40;;;;;;4939381;29;20043;-69
2022/03/29 05:54:01;;;;;;;85.72;36.28;;;2.50;89.50;;;;;;4951995;29;20050;-69
2022/03/29 05:56:29;;;;;;;87.53;39.45;;;2.40;89.30;;;;;;4938319;29;20409;-71
2022/03/29 05:58:56;;;;;;;88.95;37.25;;;2.30;89.30;;;;;;4939389;29;20379;-69
2022/03/29 06:01:24;;;;;;;92.57;39.38;;;2.30;89.40;;;;;;4941626;29;20052;-69
2022/03/29 06:03:52;;;;;;;99.25;41.72;;;2.30;89.60;;;;;;4942812;29;20051;-69
2022/03/29 06:06:20;;;;;;;93.22;40.20;;;2.30;89.80;;;;;;4944945;29;20046;-69
2022/03/29 06:08:48;;;;;;;70.40;33.78;;;2.30;89.80;;;;;;4943765;29;20071;-69
2022/03/29 06:11:16;;;;;;;99.53;40.67;;;2.30;89.60;;;;;;4947388;29;20393;-70
2022/03/29 06:13:44;;;;;;;126.97;48.55;;;2.30;89.80;;;;;;4949741;29;20070;-69
2022/03/29 06:16:12;;;;;;;118.10;47.60;;;2.40;89.90;;;;;;4942177;29;20043;-69
2022/03/29 06:18:39;;;;;;;99.93;42.03;;;2.50;89.90;;;;;;4949468;29;20382;-70
2022/03/29 06:21:07;;;;;;;106.85;44.90;;;2.50;89.80;;;;;;4936833;29;20379;-69
2022/03/29 06:23:35;;;;;;;93.05;42.95;;;2.60;89.70;;;;;;4944180;29;20056;-69
2022/03/29 06:26:02;;;;;;;89.72;37.42;;;2.60;89.70;;;;;;4952006;28;20052;-69
2022/03/29 06:28:30;;;;;;;71.65;34.28;;;2.60;89.80;;;;;;4951212;29;20043;-70
2022/03/29 06:30:58;;;;;;;69.40;32.35;;;2.70;89.80;;;;;;4946956;29;20051;-69
2022/03/29 06:33:26;;;;;;;77.35;34.90;;;2.70;89.70;;;;;;4938800;29;20055;-69
2022/03/29 06:35:54;;;;;;;73.97;33.95;;;2.60;89.60;;;;;;4951075;29;20062;-69
2022/03/29 06:38:22;;;;;;;61.85;30.33;;;2.70;89.70;;;;;;4938396;29;20044;-69
2022/03/29 06:40:50;;;;;;;64.90;34.13;;;2.70;89.70;;;;;;4943262;29;20374;-69
2022/03/29 06:43:18;;;;;;;65.88;32.17;;;2.70;89.80;;;;;;4953523;29;20050;-70
2022/03/29 06:45:45;;;;;;;65.82;34.33;;;2.70;89.80;;;;;;4941221;28;20509;-69
2022/03/29 06:48:13;;;;;;;64.95;33.80;;;2.80;89.90;;;;;;4953807;29;20409;-69
2022/03/29 06:50:41;;;;;;;68.03;33.40;;;2.80;89.80;;;;;;4937626;29;20046;-69
2022/03/29 06:53:09;;;;;;;60.05;31.63;;;2.90;89.80;;;;;;4937602;29;20039;-69
2022/03/29 06:55:37;;;;;;;65.03;33.90;;;3.00;89.70;;;;;;4942910;29;20055;-69
2022/03/29 06:58:04;;;;;;;66.55;32.67;;;3.00;89.70;;;;;;4954780;28;20382;-69
2022/03/29 07:00:32;;;;;;;59.90;33.15;;;3.10;89.60;;;;;;4967536;28;20046;-69
2022/03/29 07:03:00;;;;;;;57.38;32.38;;;3.20;89.60;;;;;;4946067;29;20402;-69
2022/03/29 07:05:28;;;;;;;62.17;33.47;;;3.30;89.50;;;;;;4949734;29;20524;-69
2022/03/29 07:07:56;;;;;;;69.95;35.38;;;3.30;89.50;;;;;;4951738;29;20524;-69
2022/03/29 07:13:10;;;;;;;65.82;34.65;;;3.60;89.60;;;;;;4938643;29;20494;-69
2022/03/29 07:15:38;;;;;;;64.75;33.40;;;3.80;89.50;;;;;;4953631;29;20039;-69
2022/03/29 07:18:06;;;;;;;62.05;32.83;;;3.90;89.30;;;;;;4949158;29;20054;-70
2022/03/29 07:20:34;;;;;;;58.97;31.45;;;4.00;89.20;;;;;;4939929;29;20051;-69
2022/03/29 07:23:01;;;;;;;60.65;32.45;;;4.10;89.20;;;;;;4955814;28;20039;-71
2022/03/29 07:25:32;;;;;;;60.42;30.65;;;4.20;89.10;;;;;;4941954;29;20069;-70
2022/03/29 07:28:00;;;;;;;52.08;28.50;;;4.30;89.20;;;;;;4938100;29;20489;-69
2022/03/29 07:30:29;;;;;;;51.22;27.80;;;4.40;89.10;;;;;;4943603;29;20047;-70
2022/03/29 07:32:58;;;;;;;50.17;25.83;;;4.60;89.10;;;;;;4947240;29;20047;-69
2022/03/29 07:35:28;;;;;;;43.97;23.15;;;4.70;89.10;;;;;;4946568;29;20047;-69
2022/03/29 07:37:56;;;;;;;41.38;22.13;;;4.80;89.00;;;;;;4951145;29;20062;-69
2022/03/29 07:40:27;;;;;;;37.28;20.85;;;4.90;89.00;;;;;;4947166;28;20517;-70
2022/03/29 07:42:55;;;;;;;34.15;18.92;;;5.10;88.90;;;;;;4966541;28;20433;-69
2022/03/29 07:45:23;;;;;;;30.25;18.10;;;5.30;88.90;;;;;;4935969;29;20055;-69
2022/03/29 07:47:52;;;;;;;36.65;18.35;;;5.40;88.70;;;;;;4952886;29;20045;-70
2022/03/29 07:50:40;;;;;;;29.85;16.95;;;5.50;88.60;;;;;;4939869;29;20046;-70
2022/03/29 07:53:08;;;;;;;28.45;16.65;;;5.70;88.50;;;;;;4954098;28;20051;-70
2022/03/29 07:55:39;;;;;;;24.27;15.60;;;5.80;88.40;;;;;;4950050;29;20128;-68
2022/03/29 07:58:13;;;;;;;26.40;16.15;;;5.90;88.20;;;;;;4934481;29;20048;-68
2022/03/29 08:00:40;;;;;;;26.73;15.15;;;6.10;88.10;;;;;;4936397;29;20043;-69
2022/03/29 08:03:11;;;;;;;23.67;14.93;;;6.20;87.90;;;;;;4936275;29;20044;-69
2022/03/29 08:05:43;;;;;;;26.80;14.60;;;6.30;87.70;;;;;;4935046;29;20056;-69
2022/03/29 08:08:13;;;;;;;23.63;14.90;;;6.40;87.60;;;;;;4952745;29;20066;-69
2022/03/29 08:10:43;;;;;;;24.48;14.48;;;6.60;87.40;;;;;;4951740;29;20090;-69
2022/03/29 08:13:10;;;;;;;28.80;15.95;;;6.60;87.20;;;;;;4952749;29;20051;-69
2022/03/29 08:15:40;;;;;;;27.60;15.55;;;6.70;87.00;;;;;;4947873;29;20047;-69
2022/03/29 08:18:08;;;;;;;28.27;15.70;;;6.80;86.80;;;;;;4952542;29;20520;-68
2022/03/29 08:20:38;;;;;;;27.83;14.85;;;6.90;86.60;;;;;;4937941;29;20512;-69
2022/03/29 08:23:07;;;;;;;28.38;15.50;;;7.00;86.30;;;;;;4937004;29;20050;-69
2022/03/29 08:25:36;;;;;;;22.55;15.15;;;7.10;86.10;;;;;;4946688;29;20489;-69
2022/03/29 08:28:05;;;;;;;25.85;15.63;;;7.20;86.00;;;;;;4951367;29;20055;-69
2022/03/29 08:30:34;;;;;;;25.85;15.38;;;7.30;85.70;;;;;;4950302;29;20051;-69
2022/03/29 08:33:02;;;;;;;26.08;15.40;;;7.30;85.40;;;;;;4949642;29;20058;-69
2022/03/29 08:35:31;;;;;;;24.30;15.07;;;7.40;85.10;;;;;;4952223;29;20039;-69
2022/03/29 08:37:59;;;;;;;24.77;15.00;;;7.60;84.80;;;;;;4953226;28;20054;-69
2022/03/29 08:40:46;;;;;;;25.08;15.07;;;7.70;84.50;;;;;;4948775;28;20092;-69
2022/03/29 08:43:15;;;;;;;24.15;14.60;;;7.80;84.20;;;;;;4950568;29;20043;-70
2022/03/29 08:45:48;;;;;;;21.92;13.90;;;7.90;83.90;;;;;;4935562;29;20055;-69
2022/03/29 08:48:17;;;;;;;19.58;13.30;;;7.90;83.40;;;;;;4956594;28;20429;-69
2022/03/29 08:50:46;;;;;;;17.58;12.35;;;8.10;83.10;;;;;;4936676;29;20052;-69
2022/03/29 08:53:20;;;;;;;17.60;11.82;;;8.20;82.80;;;;;;4934496;29;20040;-69
2022/03/29 08:55:48;;;;;;;21.80;12.63;;;8.30;82.50;;;;;;4942603;29;20051;-69
2022/03/29 08:58:17;;;;;;;16.20;11.52;;;8.40;82.00;;;;;;4951584;28;20408;-69
2022/03/29 09:00:46;;;;;;;18.55;12.00;;;8.50;81.80;;;;;;4943411;29;20047;-69
2022/03/29 09:03:17;;;;;;;23.67;12.55;;;8.60;81.40;;;;;;4950241;29;20683;-70
2022/03/29 09:05:48;;;;;;;17.08;11.68;;;8.70;81.10;;;;;;4936429;29;20051;-69
2022/03/29 09:08:16;;;;;;;22.50;13.60;;;8.80;80.60;;;;;;4936910;29;20417;-69
2022/03/29 09:10:48;;;;;;;21.27;13.38;;;8.80;80.50;;;;;;4955385;29;20051;-69
2022/03/29 09:13:31;;;;;;;16.30;11.40;;;8.90;80.20;;;;;;4948697;29;20052;-69
2022/03/29 09:16:01;;;;;;;20.30;12.32;;;9.00;80.10;;;;;;4953732;29;20055;-69
2022/03/29 09:18:31;;;;;;;20.63;13.23;;;9.10;79.80;;;;;;4955686;29;20062;-69
2022/03/29 09:21:15;;;;;;;22.27;12.52;;;9.20;79.50;;;;;;4947803;29;20048;-69
2022/03/29 09:24:02;;;;;;;15.85;11.57;;;9.30;79.10;;;;;;4949825;29;20055;-69
2022/03/29 09:26:30;;;;;;;17.58;12.85;;;9.30;78.80;;;;;;4954384;29;20039;-69
2022/03/29 09:28:58;;;;;;;18.35;13.30;;;9.40;78.30;;;;;;4939173;29;20059;-68
2022/03/29 09:31:29;;;;;;;20.52;11.52;;;9.50;78.40;;;;;;4942719;29;20044;-69
2022/03/29 09:34:10;;;;;;;17.02;11.13;;;9.60;78.10;;;;;;4947680;29;20059;-69
2022/03/29 09:36:48;;;;;;;17.40;10.82;;;9.70;77.80;;;;;;4939798;29;20047;-68
2022/03/29 09:39:36;;;;;;;15.95;11.82;;;9.80;77.80;;;;;;4937816;29;20047;-69
2022/03/29 09:42:09;;;;;;;17.00;11.23;;;10.00;77.60;;;;;;4945319;29;20421;-69
2022/03/29 09:44:47;;;;;;;22.15;11.40;;;10.10;77.30;;;;;;4954207;29;20047;-68
2022/03/29 09:47:20;;;;;;;17.77;12.57;;;10.30;77.10;;;;;;4956317;29;20043;-69
2022/03/29 09:50:09;;;;;;;20.02;12.10;;;10.40;76.70;;;;;;4952671;29;20047;-69
2022/03/29 09:52:39;;;;;;;18.85;12.32;;;10.60;76.00;;;;;;4950685;29;20043;-69
2022/03/29 09:55:20;;;;;;;22.90;12.95;;;10.70;75.80;;;;;;4956493;28;20678;-69
2022/03/29 09:57:57;;;;;;;18.55;13.75;;;10.80;75.60;;;;;;4940628;29;20055;-69
2022/03/29 10:00:25;;;;;;;21.30;14.38;;;10.90;75.40;;;;;;4940695;29;20056;-70
2022/03/29 10:02:53;;;;;;;23.25;16.00;;;11.10;75.20;;;;;;4938525;29;20052;-69
2022/03/29 10:05:23;;;;;;;25.63;16.08;;;11.30;75.10;;;;;;4952080;28;20433;-69
2022/03/29 10:10:49;;;;;;;25.55;16.83;;;11.60;73.90;;;;;;4951739;29;20401;-70
2022/03/29 10:13:23;;;;;;;25.45;18.13;;;11.80;73.70;;;;;;4941136;29;20036;-70
2022/03/29 10:15:54;;;;;;;28.13;18.52;;;11.90;73.30;;;;;;4954853;29;20051;-70
2022/03/29 10:18:26;;;;;;;28.13;21.05;;;12.20;72.80;;;;;;4948297;29;20055;-69
2022/03/29 10:20:56;;;;;;;30.52;19.77;;;12.30;72.30;;;;;;4951205;28;20062;-69
2022/03/29 10:23:25;;;;;;;26.90;19.00;;;12.40;71.00;;;;;;4953585;29;20403;-69
2022/03/29 10:25:54;;;;;;;34.45;22.17;;;12.40;70.90;;;;;;4956019;29;20489;-69
2022/03/29 10:28:29;;;;;;;36.00;24.08;;;12.60;71.00;;;;;;4947289;29;20423;-69
2022/03/29 10:30:56;;;;;;;44.65;27.02;;;12.70;70.50;;;;;;4940961;29;20055;-69
2022/03/29 10:33:31;;;;;;;36.85;25.42;;;12.90;70.30;;;;;;4940846;29;20493;-69
2022/03/29 10:36:07;;;;;;;40.35;26.48;;;13.10;69.80;;;;;;4950130;29;20047;-70
2022/03/29 10:38:44;;;;;;;36.42;24.33;;;13.30;68.80;;;;;;4939883;29;20043;-69
2022/03/29 10:41:27;;;;;;;37.97;25.98;;;13.50;68.00;;;;;;4938670;29;20051;-69
2022/03/29 10:44:01;;;;;;;37.47;26.92;;;13.60;67.40;;;;;;4940021;29;20059;-69
2022/03/29 10:46:45;;;;;;;36.40;26.25;;;13.60;66.70;;;;;;4955616;29;20058;-69
2022/03/29 10:49:21;;;;;;;41.20;25.77;;;13.70;66.50;;;;;;4943832;29;20540;-69
2022/03/29 10:51:51;;;;;;;38.67;25.40;;;13.80;66.10;;;;;;4951276;29;20063;-69
2022/03/29 10:54:37;;;;;;;35.15;25.92;;;13.90;65.70;;;;;;4936223;29;20409;-71
2022/03/29 10:57:26;;;;;;;32.42;24.25;;;14.00;65.10;;;;;;4938699;29;20052;-71
2022/03/29 11:00:17;;;;;;;38.70;25.80;;;14.30;64.50;;;;;;4955612;29;20051;-69
2022/03/29 11:03:07;;;;;;;34.60;25.05;;;14.40;63.10;;;;;;4951188;29;20047;-69
2022/03/29 11:06:08;;;;;;;35.00;24.63;;;14.60;62.50;;;;;;4946221;29;20044;-69
2022/03/29 11:08:39;;;;;;;36.20;25.00;;;14.80;61.80;;;;;;4943419;29;20051;-70
2022/03/29 11:11:28;;;;;;;37.65;24.70;;;14.80;61.40;;;;;;4951457;29;20054;-70
2022/03/29 11:14:33;;;;;;;38.30;23.95;;;14.70;60.70;;;;;;4935887;29;20054;-70
2022/03/29 11:17:11;;;;;;;33.83;24.90;;;14.50;60.70;;;;;;4940718;29;20047;-70
2022/03/29 11:19:44;;;;;;;33.17;24.15;;;14.30;60.80;;;;;;4951101;29;20054;-70
2022/03/29 11:22:36;;;;;;;34.30;24.23;;;14.20;60.90;;;;;;4941812;29;20039;-70
2022/03/29 11:25:06;;;;;;;35.83;25.88;;;14.00;60.80;;;;;;4936614;28;20051;-70
2022/03/29 11:27:36;;;;;;;36.35;24.10;;;13.80;61.40;;;;;;4940963;29;20521;-69
2022/03/29 11:30:07;;;;;;;36.17;25.70;;;13.80;61.30;;;;;;4935626;29;20043;-69
2022/03/29 11:32:35;;;;;;;32.20;23.98;;;13.80;60.90;;;;;;4949763;28;20039;-70
2022/03/29 11:35:07;;;;;;;33.67;24.30;;;13.70;61.00;;;;;;4941642;29;20055;-69
2022/03/29 11:37:38;;;;;;;34.70;23.73;;;13.70;61.00;;;;;;4942065;28;20070;-69
2022/03/29 11:40:09;;;;;;;34.38;23.40;;;13.70;60.60;;;;;;4945915;29;20054;-69
2022/03/29 11:42:47;;;;;;;31.42;22.25;;;13.90;60.00;;;;;;4934813;29;20055;-70
2022/03/29 11:45:20;;;;;;;27.23;20.80;;;14.00;59.80;;;;;;4938684;29;20055;-69
2022/03/29 11:48:07;;;;;;;27.25;19.88;;;14.00;59.50;;;;;;4947073;29;20473;-70
2022/03/29 11:50:43;;;;;;;31.55;19.55;;;14.30;59.20;;;;;;4951278;29;20066;-70
2022/03/29 11:53:26;;;;;;;24.38;16.38;;;14.70;58.30;;;;;;4946512;28;20054;-70
2022/03/29 11:56:01;;;;;;;24.60;17.50;;;15.00;57.00;;;;;;4935179;29;20062;-69
2022/03/29 11:58:40;;;;;;;22.40;16.55;;;15.40;55.70;;;;;;4943195;29;20066;-69
2022/03/29 12:01:13;;;;;;;18.27;13.77;;;15.80;54.90;;;;;;4936065;29;20051;-69
2022/03/29 12:03:41;;;;;;;;;;;16.30;53.40;;;;;;4937467;29;20047;-69
2022/03/29 12:06:15;;;;;;;16.02;12.52;;;16.60;52.20;;;;;;4946834;29;20296;-70
2022/03/29 12:08:48;;;;;;;19.85;14.73;;;17.00;50.90;;;;;;4952943;29;20050;-69
2022/03/29 12:11:27;;;;;;;15.38;12.20;;;17.30;50.50;;;;;;4951841;29;20498;-70
2022/03/29 12:14:10;;;;;;;25.85;17.35;;;17.70;49.40;;;;;;4953989;28;20062;-69
2022/03/29 12:16:41;;;;;;;29.98;18.67;;;17.70;50.30;;;;;;4949045;29;20051;-69
2022/03/29 12:19:19;;;;;;;29.90;19.42;;;17.60;51.50;;;;;;4936905;29;20048;-69
2022/03/29 12:21:53;;;;;;;;;;;17.30;52.30;;;;;;4936797;29;20055;-68
2022/03/29 12:24:32;;;;;;;23.20;17.20;;;17.10;53.30;;;;;;4935134;29;19927;-69
2022/03/29 12:27:06;;;;;;;24.08;15.80;;;17.30;53.80;;;;;;4934998;29;20062;-69
2022/03/29 12:29:43;;;;;;;24.80;14.40;;;17.80;53.30;;;;;;4938769;29;20378;-69
2022/03/29 12:32:11;;;;;;;17.42;12.68;;;18.30;51.70;;;;;;4944058;29;20050;-69
2022/03/29 12:34:53;;;;;;;16.60;13.50;;;18.80;50.00;;;;;;4937485;29;20048;-69
2022/03/29 12:37:22;;;;;;;18.83;13.38;;;19.00;48.10;;;;;;4935509;29;20056;-68
2022/03/29 12:39:58;;;;;;;18.58;13.18;;;19.30;47.70;;;;;;4942315;29;20036;-69
2022/03/29 12:42:30;;;;;;;16.77;12.20;;;19.70;46.70;;;;;;4937201;29;20044;-69
2022/03/29 12:45:00;;;;;;;14.03;10.90;;;20.10;45.00;;;;;;4949881;29;20306;-70
2022/03/29 12:47:32;;;;;;;16.77;11.10;;;20.60;44.70;;;;;;4941617;29;20763;-70
2022/03/29 12:50:02;;;;;;;12.30;9.38;;;20.90;43.30;;;;;;4938293;29;20435;-70
2022/03/29 12:52:37;;;;;;;15.38;11.27;;;20.80;42.20;;;;;;4921345;29;20498;-69
2022/03/29 12:55:05;;;;;;;14.13;11.68;;;20.30;41.70;;;;;;4938203;29;20055;-69
2022/03/29 12:57:38;;;;;;;16.52;10.07;;;20.10;42.10;;;;;;4937873;29;20058;-70
2022/03/29 13:00:10;;;;;;;14.27;10.73;;;20.40;42.00;;;;;;4952726;29;20055;-69
2022/03/29 13:02:43;;;;;;;16.55;12.95;;;20.50;41.10;;;;;;4937346;29;20521;-69